Time;durP1;ratioP1;P1;durP2;ratioP2;P2;SDS_P1;SDS_P2;PMS_P1;PMS_P2;Temp;Humidity;BMP_temperature;BMP_pressure;BME280_temperature;BME280_humidity;BME280_pressure;Samples;Min_cycle;Max_cycle;Signal;HPM_P1;HPM_P2
2024/01/20 00:00:25;;;;;;;74.80;20.70;;;-1.50;99.90;;;;;;5045520;28;20217;-64
2024/01/20 00:02:55;;;;;;;70.00;19.67;;;-1.50;99.90;;;;;;5037737;28;20232;-64
2024/01/20 00:05:23;;;;;;;69.10;20.37;;;-1.50;99.90;;;;;;5039383;28;20692;-64
2024/01/20 00:07:51;;;;;;;76.20;20.57;;;-1.50;99.90;;;;;;5044591;28;20225;-64
2024/01/20 00:10:20;;;;;;;73.33;20.90;;;-1.50;99.90;;;;;;5046383;28;20229;-64
2024/01/20 00:12:49;;;;;;;75.93;20.50;;;-1.50;99.90;;;;;;5042519;28;20217;-64
2024/01/20 00:15:17;;;;;;;64.63;19.17;;;-1.50;99.90;;;;;;5042441;28;20236;-64
2024/01/20 00:17:46;;;;;;;67.77;20.43;;;-1.50;99.90;;;;;;5044627;28;20248;-64
2024/01/20 00:20:16;;;;;;;63.00;20.30;;;-1.50;99.90;;;;;;5040847;28;20205;-64
2024/01/20 00:22:44;;;;;;;78.90;20.73;;;-1.40;99.90;;;;;;5043852;28;20659;-64
2024/01/20 00:25:13;;;;;;;70.50;20.27;;;-1.60;99.90;;;;;;5042652;28;20217;-63
2024/01/20 00:27:41;;;;;;;73.23;21.00;;;-1.50;99.90;;;;;;5043986;28;20212;-64
2024/01/20 00:30:11;;;;;;;66.03;19.80;;;-1.50;99.90;;;;;;5040866;28;20299;-64
2024/01/20 00:32:39;;;;;;;61.77;19.43;;;-1.60;99.90;;;;;;5044532;28;20298;-64
2024/01/20 00:35:08;;;;;;;71.43;20.37;;;-1.50;99.90;;;;;;5041704;28;20295;-63
2024/01/20 00:37:39;;;;;;;68.67;19.60;;;-1.50;99.90;;;;;;5043802;28;20192;-64
2024/01/20 00:40:08;;;;;;;59.57;18.77;;;-1.60;99.90;;;;;;5037256;28;20326;-64
2024/01/20 00:42:36;;;;;;;64.63;18.17;;;-1.50;99.90;;;;;;5042340;28;20304;-64
2024/01/20 00:45:06;;;;;;;64.90;19.10;;;-1.50;99.90;;;;;;5040984;28;20215;-64
2024/01/20 00:47:34;;;;;;;68.20;18.77;;;-1.60;99.90;;;;;;5044215;28;20228;-64
2024/01/20 00:50:07;;;;;;;61.77;18.67;;;-1.60;99.90;;;;;;5043744;28;20216;-63
2024/01/20 00:52:36;;;;;;;67.57;18.87;;;-1.60;99.90;;;;;;5038355;28;20193;-64
2024/01/20 00:55:07;;;;;;;68.60;18.90;;;-1.50;99.90;;;;;;5044492;28;20298;-64
2024/01/20 00:57:35;;;;;;;65.80;18.93;;;-1.50;99.90;;;;;;5042961;28;20221;-64
2024/01/20 01:00:09;;;;;;;68.60;19.10;;;-1.50;99.90;;;;;;5043469;28;20654;-64
2024/01/20 01:02:38;;;;;;;58.90;17.90;;;-1.60;99.90;;;;;;5039169;28;20220;-64
2024/01/20 01:05:07;;;;;;;58.63;17.83;;;-1.60;99.90;;;;;;5041590;28;20271;-64
2024/01/20 01:07:36;;;;;;;60.57;18.67;;;-1.70;99.90;;;;;;5040911;28;20324;-64
2024/01/20 01:10:07;;;;;;;62.57;18.30;;;-1.70;99.90;;;;;;5040280;28;20227;-64
2024/01/20 01:12:36;;;;;;;58.60;17.87;;;-1.70;99.90;;;;;;5043197;28;20602;-64
2024/01/20 01:15:05;;;;;;;67.97;18.27;;;-1.60;99.90;;;;;;5039992;28;20772;-64
2024/01/20 01:17:33;;;;;;;64.37;19.43;;;-1.60;99.90;;;;;;5042422;28;20682;-64
2024/01/20 01:20:02;;;;;;;72.10;20.53;;;-1.70;99.90;;;;;;5039898;28;20200;-64
2024/01/20 01:22:30;;;;;;;77.53;20.17;;;-1.60;99.90;;;;;;5040279;28;20328;-62
2024/01/20 01:24:58;;;;;;;72.20;19.60;;;-1.60;99.90;;;;;;5045024;28;20236;-64
2024/01/20 01:27:28;;;;;;;72.57;20.27;;;-1.60;99.90;;;;;;5042162;28;20228;-64
2024/01/20 01:29:56;;;;;;;69.70;21.23;;;-1.60;99.90;;;;;;5043437;28;20208;-64
2024/01/20 01:32:25;;;;;;;76.70;20.23;;;-1.60;99.90;;;;;;5044584;28;20220;-64
2024/01/20 01:34:53;;;;;;;73.23;21.00;;;-1.60;99.90;;;;;;5040136;28;20303;-64
2024/01/20 01:37:22;;;;;;;80.50;21.47;;;-1.60;99.90;;;;;;5041718;28;20725;-64
2024/01/20 01:39:50;;;;;;;73.30;21.83;;;-1.60;99.90;;;;;;5038424;28;20270;-64
2024/01/20 01:42:18;;;;;;;87.47;22.87;;;-1.60;99.90;;;;;;5046404;28;20232;-64
2024/01/20 01:44:48;;;;;;;86.37;22.60;;;-1.70;99.90;;;;;;5043001;28;20220;-64
2024/01/20 01:47:16;;;;;;;78.67;22.83;;;-1.60;99.90;;;;;;5043394;28;20264;-64
2024/01/20 01:49:45;;;;;;;81.93;22.77;;;-1.60;99.90;;;;;;5046588;28;20201;-64
2024/01/20 01:52:15;;;;;;;80.17;22.80;;;-1.60;99.90;;;;;;5043676;28;20710;-64
2024/01/20 01:54:44;;;;;;;85.17;23.53;;;-1.60;99.90;;;;;;5043821;28;20314;-64
2024/01/20 01:57:14;;;;;;;84.17;23.90;;;-1.70;99.90;;;;;;5044846;28;20231;-64
2024/01/20 01:59:43;;;;;;;88.03;24.10;;;-1.70;99.90;;;;;;5046991;28;20216;-64
2024/01/20 02:02:12;;;;;;;77.80;21.90;;;-1.60;99.90;;;;;;5045015;28;20200;-64
2024/01/20 02:04:41;;;;;;;84.17;23.50;;;-1.70;99.90;;;;;;5043225;28;20224;-64
2024/01/20 02:07:09;;;;;;;71.73;21.47;;;-1.60;99.90;;;;;;5042117;28;20216;-64
2024/01/20 02:09:39;;;;;;;79.47;22.53;;;-1.60;99.90;;;;;;5041209;28;20233;-64
2024/01/20 02:12:08;;;;;;;78.83;22.37;;;-1.60;99.90;;;;;;5046509;28;20235;-64
2024/01/20 02:14:37;;;;;;;71.50;20.27;;;-1.70;99.90;;;;;;5045187;28;20225;-64
2024/01/20 02:17:06;;;;;;;71.83;20.60;;;-1.60;99.90;;;;;;5047594;28;20295;-64
2024/01/20 02:19:39;;;;;;;68.57;19.97;;;-1.70;99.90;;;;;;5045119;28;20208;-64
2024/01/20 02:22:12;;;;;;;72.03;21.43;;;-1.70;99.90;;;;;;5043823;28;20714;-64
2024/01/20 02:24:40;;;;;;;71.03;19.00;;;-1.70;99.90;;;;;;5043740;28;20686;-64
2024/01/20 02:27:09;;;;;;;66.93;20.57;;;-1.70;99.90;;;;;;5042360;28;20229;-64
2024/01/20 02:29:39;;;;;;;57.67;18.47;;;-1.70;99.90;;;;;;5045495;28;20224;-64
2024/01/20 02:32:08;;;;;;;60.80;18.70;;;-1.70;99.90;;;;;;5044167;28;20583;-64
2024/01/20 02:34:37;;;;;;;68.93;19.83;;;-1.70;99.90;;;;;;5042370;28;20193;-64
2024/01/20 02:37:07;;;;;;;56.77;18.07;;;-1.70;99.90;;;;;;5043779;28;20247;-64
2024/01/20 02:39:37;;;;;;;69.87;20.60;;;-1.70;99.90;;;;;;5045545;28;20315;-64
2024/01/20 02:42:08;;;;;;;58.63;19.77;;;-1.70;99.90;;;;;;5044527;28;20305;-64
2024/01/20 02:44:36;;;;;;;63.13;19.40;;;-1.70;99.90;;;;;;5044595;28;20212;-64
2024/01/20 02:47:07;;;;;;;65.03;19.60;;;-1.70;99.90;;;;;;5044181;28;20197;-63
2024/01/20 02:49:35;;;;;;;65.13;20.40;;;-1.70;99.90;;;;;;5042355;28;20200;-64
2024/01/20 02:52:04;;;;;;;67.40;19.53;;;-1.70;99.90;;;;;;5046188;28;20720;-64
2024/01/20 02:54:32;;;;;;;59.03;18.10;;;-1.70;99.90;;;;;;5045337;28;20232;-64
2024/01/20 02:57:02;;;;;;;57.47;18.53;;;-1.80;99.90;;;;;;5046460;28;20244;-64
2024/01/20 02:59:31;;;;;;;61.37;19.13;;;-1.80;99.90;;;;;;5045298;28;20212;-64
2024/01/20 03:02:01;;;;;;;64.00;18.47;;;-1.70;99.90;;;;;;5042794;28;20224;-64
2024/01/20 03:04:30;;;;;;;65.87;17.80;;;-1.80;99.90;;;;;;5042346;28;20222;-64
2024/01/20 03:06:58;;;;;;;63.60;18.40;;;-1.80;99.90;;;;;;5040043;28;20688;-64
2024/01/20 03:09:26;;;;;;;58.83;18.17;;;-1.80;99.90;;;;;;5045950;28;20217;-64
2024/01/20 03:11:55;;;;;;;48.47;15.77;;;-1.80;99.90;;;;;;5043841;28;20311;-64
2024/01/20 03:14:24;;;;;;;59.07;16.10;;;-1.80;99.90;;;;;;5041208;28;20232;-64
2024/01/20 03:16:52;;;;;;;52.07;15.90;;;-1.90;99.90;;;;;;5041775;28;20213;-64
2024/01/20 03:19:21;;;;;;;48.07;15.93;;;-1.90;99.90;;;;;;5040337;28;20221;-64
2024/01/20 03:21:49;;;;;;;49.13;15.80;;;-1.90;99.90;;;;;;5046715;28;20248;-64
2024/01/20 03:24:19;;;;;;;51.13;15.17;;;-1.90;99.90;;;;;;5041325;28;20220;-64
2024/01/20 03:26:49;;;;;;;50.63;15.60;;;-1.90;99.90;;;;;;5044752;28;20225;-64
2024/01/20 03:29:17;;;;;;;53.10;16.40;;;-1.90;99.90;;;;;;5042526;28;20249;-64
2024/01/20 03:31:47;;;;;;;52.17;16.43;;;-1.90;99.90;;;;;;5046313;28;20193;-64
2024/01/20 03:34:16;;;;;;;51.43;16.00;;;-1.90;99.90;;;;;;5041588;28;20244;-64
2024/01/20 03:36:46;;;;;;;49.30;14.37;;;-1.90;99.90;;;;;;5045333;28;20223;-64
2024/01/20 03:39:14;;;;;;;54.43;15.77;;;-1.90;99.90;;;;;;5044666;28;20224;-64
2024/01/20 03:41:42;;;;;;;57.37;16.50;;;-1.90;99.90;;;;;;5043461;28;20291;-64
2024/01/20 03:44:10;;;;;;;48.13;15.60;;;-1.90;99.90;;;;;;5043575;28;20199;-63
2024/01/20 03:46:39;;;;;;;56.03;16.57;;;-1.90;99.90;;;;;;5045771;28;20197;-64
2024/01/20 03:49:09;;;;;;;57.57;18.10;;;-1.90;99.90;;;;;;5043050;28;20220;-64
2024/01/20 03:51:37;;;;;;;59.13;17.13;;;-1.90;99.90;;;;;;5039174;28;20679;-64
2024/01/20 03:54:06;;;;;;;54.70;17.03;;;-1.90;99.90;;;;;;5046237;28;20217;-64
2024/01/20 03:56:34;;;;;;;53.40;15.77;;;-1.90;99.90;;;;;;5046349;28;20221;-64
2024/01/20 03:59:03;;;;;;;53.67;16.47;;;-1.90;99.90;;;;;;5042535;28;20186;-64
2024/01/20 04:01:31;;;;;;;58.70;17.50;;;-1.90;99.90;;;;;;5042297;28;20194;-64
2024/01/20 04:03:59;;;;;;;63.83;19.43;;;-1.90;99.90;;;;;;5043747;28;20675;-64
2024/01/20 04:06:31;;;;;;;60.47;18.30;;;-1.90;99.90;;;;;;5041135;28;20228;-64
2024/01/20 04:09:00;;;;;;;72.17;19.43;;;-1.80;99.90;;;;;;5040647;28;20243;-64
2024/01/20 04:11:28;;;;;;;63.43;18.77;;;-1.80;99.90;;;;;;5042058;28;20220;-64
2024/01/20 04:13:56;;;;;;;59.53;18.90;;;-1.80;99.90;;;;;;5043415;28;20614;-64
2024/01/20 04:16:25;;;;;;;62.87;18.03;;;-1.80;99.90;;;;;;5042518;28;20228;-64
2024/01/20 04:18:53;;;;;;;55.20;17.37;;;-1.80;99.90;;;;;;5044749;28;20220;-64
2024/01/20 04:21:22;;;;;;;58.40;17.30;;;-1.90;99.90;;;;;;5040295;28;20245;-64
2024/01/20 04:23:52;;;;;;;47.53;14.53;;;-1.90;99.90;;;;;;5043674;28;20231;-63
2024/01/20 04:26:20;;;;;;;49.33;16.73;;;-1.80;99.90;;;;;;5043624;28;20225;-64
2024/01/20 04:28:49;;;;;;;56.97;17.17;;;-1.80;99.90;;;;;;5045167;28;20200;-64
2024/01/20 04:31:17;;;;;;;57.97;17.77;;;-1.80;99.90;;;;;;5043316;28;20213;-64
2024/01/20 04:33:45;;;;;;;60.00;18.13;;;-1.80;99.90;;;;;;5039708;28;20953;-64
2024/01/20 04:36:13;;;;;;;68.00;17.73;;;-1.80;99.90;;;;;;5041527;28;20578;-64
2024/01/20 04:38:42;;;;;;;67.47;19.60;;;-1.80;99.90;;;;;;5042484;28;20753;-64
2024/01/20 04:41:11;;;;;;;59.70;17.67;;;-1.80;99.90;;;;;;5042911;28;20193;-63
2024/01/20 04:43:39;;;;;;;53.13;17.70;;;-1.80;99.90;;;;;;5042559;28;20199;-64
2024/01/20 04:46:07;;;;;;;52.23;17.90;;;-1.80;99.90;;;;;;5042055;28;20216;-63
2024/01/20 04:48:36;;;;;;;54.23;17.93;;;-1.80;99.90;;;;;;5043156;28;20217;-64
2024/01/20 04:51:05;;;;;;;63.73;18.90;;;-1.80;99.90;;;;;;5042422;28;20220;-64
2024/01/20 04:53:34;;;;;;;62.50;19.13;;;-1.80;99.90;;;;;;5042705;28;20221;-64
2024/01/20 04:56:04;;;;;;;51.53;18.10;;;-1.80;99.90;;;;;;5041096;28;20209;-59
2024/01/20 04:58:34;;;;;;;51.60;17.33;;;-1.80;99.90;;;;;;5038245;28;20212;-64
2024/01/20 05:01:02;;;;;;;61.07;18.90;;;-1.70;99.90;;;;;;5043393;28;20217;-64
2024/01/20 05:03:30;;;;;;;62.50;19.60;;;-1.70;99.90;;;;;;5039936;28;20212;-64
2024/01/20 05:05:59;;;;;;;53.97;18.87;;;-1.70;99.90;;;;;;5039820;28;20217;-64
2024/01/20 05:08:27;;;;;;;58.40;18.83;;;-1.70;99.90;;;;;;5040788;28;21093;-64
2024/01/20 05:10:55;;;;;;;64.37;19.17;;;-1.70;99.90;;;;;;5041223;28;20643;-64
2024/01/20 05:13:24;;;;;;;60.50;18.73;;;-1.70;99.90;;;;;;5040037;28;20213;-64
2024/01/20 05:15:54;;;;;;;55.70;19.57;;;-1.60;99.90;;;;;;5044007;28;20580;-64
2024/01/20 05:18:22;;;;;;;64.97;19.63;;;-1.60;99.90;;;;;;5042946;28;20229;-64
2024/01/20 05:20:51;;;;;;;57.50;20.43;;;-1.60;99.90;;;;;;5045258;28;20228;-64
2024/01/20 05:23:19;;;;;;;52.00;18.50;;;-1.60;99.90;;;;;;5045590;28;20208;-63
2024/01/20 05:25:47;;;;;;;46.30;16.50;;;-1.60;99.90;;;;;;5042945;28;20216;-64
2024/01/20 05:28:15;;;;;;;38.60;14.90;;;-1.80;99.90;;;;;;5046485;28;20208;-63
2024/01/20 05:30:44;;;;;;;48.47;15.00;;;-1.80;99.90;;;;;;5045181;28;20228;-64
2024/01/20 05:33:13;;;;;;;41.13;13.83;;;-1.90;99.90;;;;;;5046344;28;20226;-64
2024/01/20 05:35:42;;;;;;;42.60;14.43;;;-1.90;99.90;;;;;;5041565;28;20221;-63
2024/01/20 05:38:10;;;;;;;45.37;14.87;;;-1.90;99.90;;;;;;5043882;28;20209;-63
2024/01/20 05:40:39;;;;;;;45.70;14.60;;;-2.00;99.90;;;;;;5047359;28;20203;-63
2024/01/20 05:43:07;;;;;;;41.27;14.77;;;-1.90;99.90;;;;;;5049867;28;20856;-63
2024/01/20 05:45:35;;;;;;;46.80;15.17;;;-1.90;99.90;;;;;;5047819;28;20227;-63
2024/01/20 05:48:04;;;;;;;41.17;14.10;;;-1.90;99.90;;;;;;5046493;28;20221;-63
2024/01/20 05:50:34;;;;;;;50.43;15.43;;;-1.90;99.90;;;;;;5045338;28;21272;-64
2024/01/20 05:53:02;;;;;;;47.37;15.63;;;-1.90;99.90;;;;;;5047331;28;20193;-64
2024/01/20 05:55:30;;;;;;;45.17;15.77;;;-1.90;99.90;;;;;;5042972;28;20225;-63
2024/01/20 05:57:58;;;;;;;49.83;17.00;;;-1.90;99.90;;;;;;5044770;28;20220;-63
2024/01/20 06:00:26;;;;;;;47.70;17.27;;;-1.90;99.90;;;;;;5047262;28;20229;-63
2024/01/20 06:02:55;;;;;;;52.30;17.53;;;-1.90;99.90;;;;;;5044600;28;20274;-63
2024/01/20 06:05:23;;;;;;;51.77;16.67;;;-1.90;99.90;;;;;;5047490;28;20244;-64
2024/01/20 06:07:53;;;;;;;47.83;15.63;;;-1.90;99.90;;;;;;5047349;28;20203;-63
2024/01/20 06:10:21;;;;;;;55.83;17.50;;;-1.90;99.90;;;;;;5048701;28;20217;-63
2024/01/20 06:12:49;;;;;;;46.17;17.87;;;-1.90;99.90;;;;;;5043839;28;20229;-63
2024/01/20 06:15:17;;;;;;;56.37;19.03;;;-1.90;99.90;;;;;;5046011;28;20248;-63
2024/01/20 06:17:45;;;;;;;47.73;17.67;;;-1.80;99.90;;;;;;5042913;28;20244;-63
2024/01/20 06:20:15;;;;;;;45.90;16.67;;;-1.80;99.90;;;;;;5045505;28;20192;-63
2024/01/20 06:22:43;;;;;;;45.20;17.83;;;-1.70;99.90;;;;;;5040353;28;20223;-63
2024/01/20 06:25:13;;;;;;;48.97;17.40;;;-1.80;99.90;;;;;;5047909;28;20224;-63
2024/01/20 06:27:44;;;;;;;47.07;17.33;;;-1.80;99.90;;;;;;5046012;28;20216;-63
2024/01/20 06:30:13;;;;;;;53.80;19.50;;;-1.70;99.90;;;;;;5042974;28;20262;-63
2024/01/20 06:32:41;;;;;;;49.30;18.77;;;-1.70;99.90;;;;;;5041856;28;20233;-63
2024/01/20 06:35:09;;;;;;;43.17;17.67;;;-1.70;99.90;;;;;;5042628;28;20196;-63
2024/01/20 06:37:38;;;;;;;50.23;17.60;;;-1.70;99.90;;;;;;5044704;28;20215;-63
2024/01/20 06:40:08;;;;;;;42.70;17.07;;;-1.70;99.90;;;;;;5045131;28;20216;-63
2024/01/20 06:42:37;;;;;;;48.30;18.50;;;-1.70;99.90;;;;;;5042204;28;20216;-63
2024/01/20 06:45:06;;;;;;;42.87;16.13;;;-1.60;99.90;;;;;;5045960;28;20587;-64
2024/01/20 06:47:35;;;;;;;45.57;18.07;;;-1.70;99.90;;;;;;5045564;28;20244;-63
2024/01/20 06:50:04;;;;;;;46.57;18.10;;;-1.60;99.90;;;;;;5043983;28;20208;-63
2024/01/20 06:52:32;;;;;;;48.70;18.37;;;-1.60;99.90;;;;;;5043349;28;20189;-64
2024/01/20 06:55:01;;;;;;;50.17;18.80;;;-1.70;99.90;;;;;;5046448;28;20275;-64
2024/01/20 06:57:30;;;;;;;41.43;17.90;;;-1.60;99.90;;;;;;5046288;28;20266;-64
2024/01/20 07:00:03;;;;;;;47.60;17.70;;;-1.60;99.90;;;;;;5044637;28;20711;-64
2024/01/20 07:02:33;;;;;;;41.67;18.40;;;-1.60;99.90;;;;;;5040634;28;20216;-62
2024/01/20 07:05:01;;;;;;;46.47;18.20;;;-1.60;99.90;;;;;;5046397;28;20867;-63
2024/01/20 07:07:32;;;;;;;42.67;17.10;;;-1.60;99.90;;;;;;5044095;28;20319;-63
2024/01/20 07:10:01;;;;;;;41.90;16.93;;;-1.50;99.90;;;;;;5046067;28;20217;-63
2024/01/20 07:12:29;;;;;;;44.13;17.13;;;-1.50;99.90;;;;;;5046596;28;20232;-63
2024/01/20 07:14:58;;;;;;;40.83;17.20;;;-1.60;99.90;;;;;;5041470;28;20216;-63
2024/01/20 07:17:27;;;;;;;43.07;17.63;;;-1.50;99.90;;;;;;5045024;28;20290;-63
2024/01/20 07:19:56;;;;;;;44.13;17.87;;;-1.50;99.90;;;;;;5041294;28;20208;-62
2024/01/20 07:22:24;;;;;;;42.60;18.00;;;-1.60;99.90;;;;;;5040942;28;20216;-62
2024/01/20 07:24:54;;;;;;;39.67;17.57;;;-1.50;99.90;;;;;;5044600;28;20224;-63
2024/01/20 07:27:22;;;;;;;46.80;18.53;;;-1.50;99.90;;;;;;5044820;28;20221;-64
2024/01/20 07:29:50;;;;;;;42.87;17.97;;;-1.50;99.90;;;;;;5039200;28;20920;-63
2024/01/20 07:32:19;;;;;;;35.90;17.00;;;-1.50;99.90;;;;;;5042223;28;20238;-63
2024/01/20 07:34:49;;;;;;;41.53;16.27;;;-1.60;99.90;;;;;;5041654;28;20609;-63
2024/01/20 07:37:17;;;;;;;40.77;16.67;;;-1.60;99.90;;;;;;5057131;28;20435;-63
2024/01/20 07:39:47;;;;;;;42.07;16.87;;;-1.60;99.90;;;;;;5045191;28;20259;-63
2024/01/20 07:42:16;;;;;;;34.87;15.23;;;-1.60;99.90;;;;;;5043110;28;20213;-64
2024/01/20 07:44:44;;;;;;;43.47;17.70;;;-1.60;99.90;;;;;;5040862;28;20221;-63
2024/01/20 07:47:14;;;;;;;40.67;16.97;;;-1.70;99.90;;;;;;5044570;28;20194;-63
2024/01/20 07:49:42;;;;;;;39.90;16.67;;;-1.70;99.90;;;;;;5037975;28;20231;-64
2024/01/20 07:52:12;;;;;;;45.03;17.80;;;-1.70;99.90;;;;;;5040968;28;20224;-64
2024/01/20 07:54:40;;;;;;;38.57;16.60;;;-1.60;99.90;;;;;;5041767;28;20229;-63
2024/01/20 07:57:09;;;;;;;40.10;16.13;;;-1.60;99.90;;;;;;5044555;28;20698;-64
2024/01/20 07:59:38;;;;;;;41.73;17.13;;;-1.60;99.90;;;;;;5044716;28;20856;-63
2024/01/20 08:02:06;;;;;;;40.40;15.77;;;-1.60;99.90;;;;;;5042426;28;20195;-63
2024/01/20 08:04:34;;;;;;;43.90;16.63;;;-1.60;99.90;;;;;;5040152;28;20259;-64
2024/01/20 08:07:03;;;;;;;33.53;15.00;;;-1.60;99.90;;;;;;5042869;28;20259;-64
2024/01/20 08:09:33;;;;;;;37.07;15.33;;;-1.60;99.90;;;;;;5040123;28;20263;-63
2024/01/20 08:12:01;;;;;;;34.00;15.47;;;-1.70;99.90;;;;;;5045810;28;20224;-64
2024/01/20 08:14:30;;;;;;;35.87;15.30;;;-1.70;99.90;;;;;;5043426;28;20838;-63
2024/01/20 08:16:58;;;;;;;36.83;15.47;;;-1.70;99.90;;;;;;5041333;28;20189;-63
2024/01/20 08:19:26;;;;;;;42.10;16.50;;;-1.70;99.90;;;;;;5040941;28;20227;-63
2024/01/20 08:21:55;;;;;;;41.00;17.20;;;-1.70;99.90;;;;;;5042765;28;20303;-63
2024/01/20 08:24:23;;;;;;;39.27;16.90;;;-1.70;99.90;;;;;;5040083;28;20231;-63
2024/01/20 08:26:53;;;;;;;41.90;17.23;;;-1.60;99.90;;;;;;5040773;28;20221;-63
2024/01/20 08:29:22;;;;;;;40.53;17.00;;;-1.60;99.90;;;;;;5043414;28;20191;-63
2024/01/20 08:31:50;;;;;;;45.28;19.20;;;-1.60;99.90;;;;;;5047608;28;20437;-64
2024/01/20 08:34:19;;;;;;;42.67;18.00;;;-1.60;99.90;;;;;;5044836;28;20304;-64
2024/01/20 08:36:47;;;;;;;39.93;16.50;;;-1.60;99.90;;;;;;5043877;28;20698;-64
2024/01/20 08:39:18;;;;;;;39.57;16.10;;;-1.50;99.90;;;;;;5044034;28;20308;-64
2024/01/20 08:41:46;;;;;;;41.17;17.70;;;-1.50;99.90;;;;;;5041444;28;20216;-63
2024/01/20 08:44:16;;;;;;;41.20;17.33;;;-1.50;99.90;;;;;;5043272;28;20197;-63
2024/01/20 08:46:45;;;;;;;39.77;16.80;;;-1.40;99.90;;;;;;5041003;28;20201;-64
2024/01/20 08:49:13;;;;;;;45.37;19.20;;;-1.40;99.90;;;;;;5039989;28;20266;-64
2024/01/20 08:51:41;;;;;;;43.20;18.77;;;-1.30;99.90;;;;;;5040677;28;20275;-63
2024/01/20 08:54:10;;;;;;;53.63;19.30;;;-1.30;99.90;;;;;;5046282;28;20308;-64
2024/01/20 08:56:39;;;;;;;48.30;18.83;;;-1.40;99.90;;;;;;5040267;28;20228;-64
2024/01/20 08:59:07;;;;;;;44.10;18.57;;;-1.40;99.90;;;;;;5040477;28;20189;-62
2024/01/20 09:01:37;;;;;;;46.80;19.77;;;-1.40;99.90;;;;;;5038390;28;20209;-63
2024/01/20 09:04:05;;;;;;;42.47;18.03;;;-1.50;99.90;;;;;;5041593;28;20228;-63
2024/01/20 09:06:33;;;;;;;45.37;19.00;;;-1.50;99.90;;;;;;5042985;28;20282;-63
2024/01/20 09:09:02;;;;;;;49.63;18.60;;;-1.60;99.90;;;;;;5039669;28;20221;-63
2024/01/20 09:11:31;;;;;;;46.13;19.37;;;-1.50;99.90;;;;;;5042305;28;20266;-63
2024/01/20 09:13:59;;;;;;;44.37;19.90;;;-1.40;99.90;;;;;;5042880;28;20213;-63
2024/01/20 09:16:27;;;;;;;49.33;19.60;;;-1.50;99.90;;;;;;5044171;28;20220;-64
2024/01/20 09:18:58;;;;;;;47.87;19.60;;;-1.60;99.90;;;;;;5041507;28;20228;-63
2024/01/20 09:21:26;;;;;;;46.37;19.10;;;-1.60;99.90;;;;;;5041289;28;20213;-63
2024/01/20 09:23:54;;;;;;;39.60;17.73;;;-1.60;99.90;;;;;;5039243;28;20214;-64
2024/01/20 09:26:23;;;;;;;41.90;18.50;;;-1.60;99.90;;;;;;5034757;28;20242;-63
2024/01/20 09:28:51;;;;;;;44.13;18.90;;;-1.70;99.90;;;;;;5038140;28;20196;-63
2024/01/20 09:31:19;;;;;;;44.80;17.03;;;-1.70;99.90;;;;;;5040625;28;20615;-64
2024/01/20 09:33:47;;;;;;;44.37;18.13;;;-1.70;99.90;;;;;;5041659;28;20228;-63
2024/01/20 09:36:17;;;;;;;42.07;18.60;;;-1.80;99.90;;;;;;5039073;28;20229;-63
2024/01/20 09:38:45;;;;;;;44.47;19.37;;;-1.70;99.90;;;;;;5041511;28;20259;-63
2024/01/20 09:41:14;;;;;;;42.97;18.77;;;-1.70;99.90;;;;;;5038341;28;20209;-63
2024/01/20 09:43:44;;;;;;;45.10;19.37;;;-1.80;99.90;;;;;;5042810;28;20208;-63
2024/01/20 09:46:13;;;;;;;42.57;18.30;;;-1.80;99.90;;;;;;5038814;28;20225;-63
2024/01/20 09:48:43;;;;;;;39.27;16.83;;;-1.80;99.90;;;;;;5042627;28;20302;-63
2024/01/20 09:51:11;;;;;;;45.47;19.00;;;-1.80;99.90;;;;;;5035953;28;20218;-63
2024/01/20 09:53:43;;;;;;;45.07;18.17;;;-1.80;99.90;;;;;;5043947;28;20232;-63
2024/01/20 09:56:11;;;;;;;41.80;18.37;;;-1.80;99.90;;;;;;5038636;28;20209;-63
2024/01/20 09:58:40;;;;;;;50.17;20.83;;;-1.70;99.90;;;;;;5041301;28;20207;-63
2024/01/20 10:01:09;;;;;;;43.23;18.13;;;-1.80;99.90;;;;;;5052824;28;20213;-63
2024/01/20 10:03:40;;;;;;;39.83;17.43;;;-1.80;99.90;;;;;;5044269;28;20216;-63
2024/01/20 10:06:09;;;;;;;43.07;17.10;;;-1.90;99.90;;;;;;5038301;28;20271;-63
2024/01/20 10:08:37;;;;;;;42.57;17.30;;;-1.90;99.90;;;;;;5042651;28;20275;-62
2024/01/20 10:11:07;;;;;;;42.97;18.07;;;-2.00;99.90;;;;;;5041649;28;20671;-63
2024/01/20 10:13:36;;;;;;;41.10;18.83;;;-2.00;99.90;;;;;;5039391;28;20222;-63
2024/01/20 10:16:04;;;;;;;46.10;19.13;;;-1.90;99.90;;;;;;5044228;28;20212;-63
2024/01/20 10:18:33;;;;;;;40.40;17.70;;;-1.80;99.90;;;;;;5054033;28;20224;-63
2024/01/20 10:21:03;;;;;;;42.63;19.13;;;-1.70;99.90;;;;;;5043232;28;20615;-64
2024/01/20 10:23:34;;;;;;;43.57;19.83;;;-1.70;99.90;;;;;;5043738;28;20716;-63
2024/01/20 10:26:03;;;;;;;37.03;17.80;;;-1.60;99.90;;;;;;5039859;28;20232;-63
2024/01/20 10:28:33;;;;;;;42.27;18.33;;;-1.40;99.90;;;;;;5045141;28;20231;-63
2024/01/20 10:31:07;;;;;;;37.07;17.07;;;-1.40;99.90;;;;;;5046556;28;20217;-64
2024/01/20 10:33:35;;;;;;;33.60;16.47;;;-1.40;99.90;;;;;;5041801;28;20567;-63
2024/01/20 10:36:04;;;;;;;32.60;15.63;;;-1.40;99.90;;;;;;5033508;28;20264;-63
2024/01/20 10:38:39;;;;;;;33.23;16.37;;;-1.50;99.90;;;;;;5038523;28;20704;-63
2024/01/20 10:41:08;;;;;;;34.67;17.67;;;-1.30;99.90;;;;;;5039281;28;20296;-63
2024/01/20 10:43:44;;;;;;;30.93;15.63;;;-1.10;99.90;;;;;;5041710;28;20533;-63
2024/01/20 10:46:22;;;;;;;32.00;16.57;;;-1.00;99.90;;;;;;5043563;28;20224;-63
2024/01/20 10:48:54;;;;;;;34.60;16.97;;;-1.10;99.90;;;;;;5035686;28;20258;-63
2024/01/20 10:51:27;;;;;;;30.60;15.27;;;-1.10;99.90;;;;;;5041224;28;20220;-62
2024/01/20 10:53:56;;;;;;;32.67;15.53;;;-1.00;99.90;;;;;;5044324;28;20321;-62
2024/01/20 10:56:25;;;;;;;28.03;14.53;;;-0.80;99.90;;;;;;5056153;28;20572;-62
2024/01/20 10:59:02;;;;;;;26.93;14.40;;;-0.70;99.90;;;;;;5039060;28;20205;-63
2024/01/20 11:01:31;;;;;;;29.77;15.07;;;-0.80;99.90;;;;;;5045065;28;20749;-62
2024/01/20 11:03:59;;;;;;;29.77;15.27;;;-0.90;99.90;;;;;;5045446;28;20221;-63
2024/01/20 11:06:28;;;;;;;29.37;15.37;;;-0.90;99.90;;;;;;5046108;28;20698;-63
2024/01/20 11:08:56;;;;;;;27.43;15.00;;;-0.90;99.90;;;;;;5037454;28;20212;-63
2024/01/20 11:11:28;;;;;;;30.90;15.03;;;-0.90;99.90;;;;;;5042467;28;20251;-62
2024/01/20 11:14:00;;;;;;;25.33;14.33;;;-0.80;99.90;;;;;;5038668;28;20686;-62
2024/01/20 11:16:32;;;;;;;30.63;14.17;;;-0.90;99.90;;;;;;5047084;28;20219;-62
2024/01/20 11:19:09;;;;;;;30.03;14.40;;;-0.80;99.90;;;;;;5043201;28;20224;-62
2024/01/20 11:21:39;;;;;;;26.23;14.07;;;-0.90;99.90;;;;;;5044572;28;20270;-63
2024/01/20 11:24:08;;;;;;;29.43;14.60;;;-0.80;99.90;;;;;;5052425;28;20252;-63
2024/01/20 11:26:39;;;;;;;26.57;14.60;;;-0.80;99.90;;;;;;5040706;28;20231;-62
2024/01/20 11:29:09;;;;;;;25.23;13.70;;;-0.60;99.90;;;;;;5042226;28;20196;-62
2024/01/20 11:31:37;;;;;;;29.27;14.33;;;-0.40;99.90;;;;;;5044650;28;20187;-61
2024/01/20 11:34:06;;;;;;;25.20;13.87;;;-0.40;99.90;;;;;;5048877;28;20225;-61
2024/01/20 11:36:35;;;;;;;27.47;14.17;;;-0.30;99.90;;;;;;5044123;28;20233;-61
2024/01/20 11:39:05;;;;;;;30.57;13.37;;;-0.20;99.90;;;;;;5050979;28;20216;-60
2024/01/20 11:41:34;;;;;;;27.33;14.03;;;-0.10;99.90;;;;;;5042124;28;20317;-60
2024/01/20 11:44:02;;;;;;;30.17;14.50;;;0.00;99.90;;;;;;5046685;28;20224;-59
2024/01/20 11:46:32;;;;;;;28.80;14.07;;;0.20;99.90;;;;;;5050819;28;20212;-60
2024/01/20 11:49:00;;;;;;;29.07;14.50;;;0.20;99.90;;;;;;5051121;28;20223;-60
2024/01/20 11:51:29;;;;;;;26.27;14.07;;;0.20;99.90;;;;;;5047127;28;20228;-61
2024/01/20 11:53:58;;;;;;;25.20;14.10;;;0.30;99.90;;;;;;5046459;28;20311;-61
2024/01/20 11:56:27;;;;;;;27.23;14.10;;;0.30;99.90;;;;;;5051969;28;20227;-61
2024/01/20 11:58:56;;;;;;;24.87;12.80;;;0.30;99.90;;;;;;5050552;28;20721;-61
2024/01/20 12:01:26;;;;;;;24.20;13.60;;;0.50;99.90;;;;;;5047660;28;20228;-61
2024/01/20 12:03:59;;;;;;;27.50;14.23;;;0.60;99.90;;;;;;5050985;28;20224;-61
2024/01/20 12:06:28;;;;;;;26.07;14.07;;;0.80;99.90;;;;;;5053407;28;20219;-61
2024/01/20 12:08:58;;;;;;;23.93;12.90;;;0.90;92.00;;;;;;5046802;28;20229;-60
2024/01/20 12:11:28;;;;;;;24.40;13.80;;;0.90;84.10;;;;;;5063858;28;20296;-60
2024/01/20 12:13:58;;;;;;;24.37;12.73;;;0.80;92.80;;;;;;5051833;28;20247;-61
2024/01/20 12:16:27;;;;;;;24.40;13.80;;;0.80;96.70;;;;;;5047346;28;20592;-61
2024/01/20 12:19:18;;;;;;;25.33;13.60;;;0.70;90.60;;;;;;5042295;28;20224;-61
2024/01/20 12:21:47;;;;;;;22.97;13.10;;;0.50;94.40;;;;;;5046199;28;20246;-61
2024/01/20 12:24:36;;;;;;;24.50;13.57;;;0.60;99.90;;;;;;5049657;28;20221;-61
2024/01/20 12:27:08;;;;;;;23.30;12.77;;;0.80;97.20;;;;;;5049367;28;20220;-61
2024/01/20 12:29:41;;;;;;;30.27;14.30;;;0.90;91.10;;;;;;5047391;28;20220;-61
2024/01/20 12:32:19;;;;;;;29.50;14.03;;;0.70;91.90;;;;;;5048626;28;20195;-60
2024/01/20 12:34:49;;;;;;;23.30;13.67;;;0.70;94.10;;;;;;5047724;28;20200;-61
2024/01/20 12:37:18;;;;;;;25.33;13.23;;;0.60;94.70;;;;;;5051173;28;20217;-61